createdAt,value
2022-08-09T00:00:31.837Z,73.42
2022-08-09T00:01:10.642Z,73.42
2022-08-09T00:01:55.214Z,73.59
2022-08-09T00:02:27.038Z,73.57
2022-08-09T00:02:58.452Z,73.44
2022-08-09T00:04:03.549Z,73.52
2022-08-09T00:04:33.919Z,73.40
2022-08-09T00:06:18.145Z,73.65
2022-08-09T00:06:22.569Z,73.94
2022-08-09T00:06:50.107Z,73.99
2022-08-09T00:07:21.483Z,73.47
2022-08-09T00:07:54.321Z,73.37
2022-08-09T00:08:31.863Z,73.81
2022-08-09T00:09:04.360Z,73.21
2022-08-09T00:09:37.058Z,73.47
2022-08-09T00:10:08.868Z,73.60
2022-08-09T00:10:49.637Z,73.52
2022-08-09T00:11:24.821Z,73.82
2022-08-09T00:12:04.369Z,73.59
2022-08-09T00:12:36.435Z,73.77
2022-08-09T00:13:16.867Z,73.80
2022-08-09T00:13:50.185Z,73.76
2022-08-09T00:14:36.230Z,74.08
2022-08-09T00:16:26.358Z,74.32
2022-08-09T00:17:08.297Z,74.12
2022-08-09T00:18:06.092Z,73.90
2022-08-09T00:18:34.729Z,74.24
2022-08-09T00:19:10.099Z,74.76
2022-08-09T00:19:41.980Z,74.76
2022-08-09T00:20:19.555Z,73.95
2022-08-09T00:20:50.945Z,74.50
2022-08-09T00:21:22.740Z,74.32
2022-08-09T00:21:55.827Z,74.78
2022-08-09T00:22:35.045Z,74.56
2022-08-09T00:23:56.330Z,74.66
2022-08-09T00:23:59.975Z,74.69
2022-08-09T00:24:32.318Z,74.71
2022-08-09T00:25:04.112Z,74.77
2022-08-09T00:25:41.486Z,74.67
2022-08-09T00:26:15.551Z,74.53
2022-08-09T00:26:46.896Z,74.88
2022-08-09T00:27:20.272Z,74.68
2022-08-09T00:27:52.771Z,74.76
2022-08-09T00:28:26.473Z,74.81
2022-08-09T00:28:59.349Z,74.55
2022-08-09T00:30:10.381Z,74.56
2022-08-09T00:30:26.172Z,74.75
2022-08-09T00:30:58.484Z,74.84
2022-08-09T00:32:00.921Z,74.49
2022-08-09T00:32:27.079Z,74.75
2022-08-09T00:32:59.047Z,74.69
2022-08-09T00:33:49.044Z,75.01
2022-08-09T00:34:22.049Z,74.96
2022-08-09T00:34:58.582Z,74.99
2022-08-09T00:35:43.411Z,74.97
2022-08-09T00:36:15.339Z,75.64
2022-08-09T00:36:48.792Z,75.07
2022-08-09T00:37:20.514Z,75.18
2022-08-09T00:37:51.963Z,74.95
2022-08-09T00:38:44.525Z,75.41
2022-08-09T00:40:08.965Z,74.97
2022-08-09T00:40:16.841Z,75.33
2022-08-09T00:40:52.421Z,75.22
2022-08-09T00:44:14.505Z,75.04
2022-08-09T00:44:16.199Z,75.08
2022-08-09T00:44:17.148Z,74.83
2022-08-09T00:44:19.576Z,75.21
2022-08-09T00:44:50.741Z,75.20
2022-08-09T00:45:25.015Z,75.12
2022-08-09T00:45:57.120Z,75.24
2022-08-09T00:46:55.965Z,75.28
2022-08-09T00:47:24.808Z,75.64
2022-08-09T00:47:56.790Z,75.34
2022-08-09T00:48:28.165Z,75.44
2022-08-09T00:49:00.107Z,74.92
2022-08-09T00:49:36.833Z,75.05
2022-08-09T00:50:14.601Z,75.16
2022-08-09T00:50:46.406Z,75.23
2022-08-09T00:51:23.906Z,75.64
2022-08-09T00:51:57.664Z,75.81
2022-08-09T00:52:34.400Z,75.60
2022-08-09T00:53:10.409Z,75.57
2022-08-09T00:53:45.258Z,75.75
2022-08-09T00:54:18.068Z,75.83
2022-08-09T00:54:51.248Z,75.27
2022-08-09T00:56:03.991Z,75.72
2022-08-09T00:56:16.699Z,75.24
2022-08-09T00:56:48.393Z,75.58
2022-08-09T00:57:24.677Z,75.27
2022-08-09T00:58:05.938Z,75.31
2022-08-09T00:58:40.398Z,75.43
2022-08-09T00:59:41.540Z,75.71
2022-08-09T01:00:21.029Z,75.61
2022-08-09T01:00:55.822Z,75.49
2022-08-09T01:02:29.459Z,75.37
2022-08-09T01:03:31.127Z,75.25
2022-08-09T01:04:19.380Z,75.70
2022-08-09T01:05:03.579Z,75.29
2022-08-09T01:05:54.282Z,75.41
2022-08-09T01:07:59.914Z,75.71
2022-08-09T01:08:40.541Z,75.54
2022-08-09T01:09:39.451Z,75.90
2022-08-09T01:10:25.827Z,75.88
2022-08-09T01:12:34.277Z,76.06
2022-08-09T01:13:59.453Z,75.76
2022-08-09T01:14:52.740Z,76.15
2022-08-09T01:15:31.448Z,76.13
2022-08-09T01:16:12.889Z,76.52
2022-08-09T01:16:47.173Z,76.44
2022-08-09T01:18:29.766Z,76.38
2022-08-09T01:19:39.639Z,76.15
2022-08-09T01:20:24.664Z,76.61
2022-08-09T01:21:19.311Z,76.39
2022-08-09T01:22:16.904Z,76.57
2022-08-09T01:24:00.849Z,76.92
2022-08-09T01:24:16.133Z,76.31
2022-08-09T01:25:21.909Z,76.46
2022-08-09T01:26:15.193Z,76.51
2022-08-09T01:26:57.919Z,76.32
2022-08-09T01:27:32.016Z,76.88
2022-08-09T01:28:06.945Z,76.94
2022-08-09T01:28:45.867Z,76.72
2022-08-09T01:29:22.917Z,76.85
2022-08-09T01:30:02.705Z,76.74
2022-08-09T01:30:52.506Z,76.70
2022-08-09T01:32:30.157Z,76.83
2022-08-09T01:32:31.325Z,76.78
2022-08-09T01:33:09.952Z,76.75
2022-08-09T01:33:46.203Z,76.89
2022-08-09T01:34:21.428Z,76.89
2022-08-09T01:35:46.711Z,77.54
2022-08-09T01:36:26.664Z,77.25
2022-08-09T01:37:02.103Z,77.62
2022-08-09T01:37:42.884Z,77.47
2022-08-09T01:38:30.675Z,77.38
2022-08-09T01:39:02.607Z,77.32
2022-08-09T01:39:38.672Z,77.63
2022-08-09T01:40:31.916Z,77.72
2022-08-09T01:41:13.098Z,77.42
2022-08-09T01:41:55.598Z,77.57
2022-08-09T01:42:35.128Z,77.50
2022-08-09T01:43:08.775Z,77.54
2022-08-09T01:43:50.763Z,77.43
2022-08-09T01:44:24.439Z,77.54
2022-08-09T01:44:57.284Z,77.48
2022-08-09T01:45:32.376Z,77.30
2022-08-09T01:46:54.735Z,77.46
2022-08-09T01:48:19.284Z,77.74
2022-08-09T01:49:10.689Z,77.94
2022-08-09T01:49:48.782Z,77.74
2022-08-09T01:50:30.041Z,77.60
2022-08-09T01:51:10.025Z,77.77
2022-08-09T01:51:54.183Z,77.85
2022-08-09T01:52:26.949Z,77.81
2022-08-09T01:53:02.364Z,77.75
2022-08-09T01:53:54.564Z,78.15
2022-08-09T01:54:38.068Z,77.70
2022-08-09T01:55:11.509Z,78.43
2022-08-09T01:55:46.672Z,77.83
2022-08-09T01:56:20.123Z,77.95
2022-08-09T01:56:52.521Z,77.58
2022-08-09T01:58:30.069Z,77.72
2022-08-09T01:59:05.963Z,77.94
2022-08-09T01:59:50.907Z,77.78
2022-08-09T02:00:34.889Z,78.04
2022-08-09T02:01:09.677Z,77.63
2022-08-09T02:02:00.164Z,77.89
2022-08-09T02:02:36.859Z,77.74
2022-08-09T02:03:13.651Z,78.40
2022-08-09T02:03:47.329Z,78.07
2022-08-09T02:04:21.073Z,77.99
2022-08-09T02:04:54.952Z,77.94
2022-08-09T02:05:37.654Z,78.38
2022-08-09T02:06:17.385Z,78.00
2022-08-09T02:07:08.666Z,78.15
2022-08-09T02:08:40.230Z,78.32
2022-08-09T02:08:57.907Z,78.04
2022-08-09T02:09:41.939Z,77.89
2022-08-09T02:10:20.161Z,78.18
2022-08-09T02:11:17.126Z,78.27
2022-08-09T02:11:49.314Z,78.44
2022-08-09T02:12:23.796Z,78.17
2022-08-09T02:13:00.906Z,78.00
2022-08-09T02:13:40.693Z,78.80
2022-08-09T02:14:25.309Z,78.62
2022-08-09T02:15:02.016Z,78.35
2022-08-09T02:15:49.363Z,79.15
2022-08-09T02:16:33.808Z,78.89
2022-08-09T02:17:54.937Z,78.72
2022-08-09T02:18:10.930Z,78.83
2022-08-09T02:18:47.674Z,78.27
2022-08-09T02:19:20.019Z,78.74
2022-08-09T02:19:52.312Z,78.48
2022-08-09T02:20:26.642Z,78.82
2022-08-09T02:21:11.644Z,79.34
2022-08-09T02:21:57.747Z,78.76
2022-08-09T02:22:38.046Z,79.06
2022-08-09T02:23:17.289Z,78.99
2022-08-09T02:23:57.468Z,78.74
2022-08-09T02:24:35.439Z,78.33
2022-08-09T02:25:21.079Z,78.64
2022-08-09T02:25:59.185Z,79.06
2022-08-09T02:26:34.936Z,78.78
2022-08-09T02:27:09.680Z,78.91
2022-08-09T02:28:00.669Z,78.77
2022-08-09T02:28:47.015Z,78.04
2022-08-09T02:29:29.266Z,78.72
2022-08-09T02:30:06.037Z,78.53
2022-08-09T02:30:55.012Z,78.70
2022-08-09T02:31:38.696Z,78.51
2022-08-09T02:32:12.324Z,78.52
2022-08-09T02:32:47.409Z,78.56
2022-08-09T02:33:38.384Z,78.60
2022-08-09T02:34:25.912Z,79.22
2022-08-09T02:35:23.071Z,78.70
2022-08-09T02:36:35.298Z,78.88
2022-08-09T02:37:14.145Z,79.02
2022-08-09T02:37:47.473Z,78.86
2022-08-09T02:38:28.814Z,79.42
2022-08-09T02:39:06.937Z,79.46
2022-08-09T02:39:55.330Z,79.07
2022-08-09T02:40:36.798Z,79.02
2022-08-09T02:41:12.473Z,79.53
2022-08-09T02:41:49.467Z,79.19
2022-08-09T02:42:27.781Z,79.06
2022-08-09T02:43:02.769Z,79.10
2022-08-09T02:43:53.450Z,79.27
2022-08-09T02:44:31.233Z,79.61
2022-08-09T02:45:07.470Z,78.98
2022-08-09T02:45:45.437Z,79.02
2022-08-09T02:46:21.886Z,79.47
2022-08-09T02:46:57.963Z,79.44
2022-08-09T02:47:33.752Z,79.33
2022-08-09T02:48:12.250Z,79.42
2022-08-09T02:48:53.923Z,79.17
2022-08-09T02:49:27.149Z,79.23
2022-08-09T02:50:14.531Z,79.41
2022-08-09T02:50:53.094Z,79.16
2022-08-09T02:51:33.056Z,79.18
2022-08-09T02:52:14.979Z,79.42
2022-08-09T02:52:49.640Z,79.24
2022-08-09T02:54:21.916Z,79.08
2022-08-09T02:54:57.242Z,78.93
2022-08-09T02:55:46.318Z,78.99
2022-08-09T02:56:19.993Z,78.70
2022-08-09T02:56:57.076Z,79.20
2022-08-09T02:57:30.793Z,79.12
2022-08-09T02:58:35.728Z,78.78
2022-08-09T02:59:09.081Z,78.78
2022-08-09T03:00:20.663Z,79.16
2022-08-09T03:00:34.162Z,78.95
2022-08-09T03:01:15.189Z,79.20
2022-08-09T03:02:06.024Z,79.14
2022-08-09T03:02:58.504Z,78.85
2022-08-09T03:04:12.823Z,79.07
2022-08-09T03:04:28.940Z,78.86
2022-08-09T03:05:02.596Z,79.39
2022-08-09T03:05:37.877Z,79.13
2022-08-09T03:07:12.343Z,79.28
2022-08-09T03:07:55.064Z,79.54
2022-08-09T03:08:28.997Z,79.21
2022-08-09T03:09:03.890Z,79.46
2022-08-09T03:09:36.256Z,79.53
2022-08-09T03:10:15.883Z,79.25
2022-08-09T03:10:50.897Z,79.56
2022-08-09T03:12:04.896Z,79.01
2022-08-09T03:12:17.467Z,79.14
2022-08-09T03:12:52.103Z,79.79
2022-08-09T03:13:26.061Z,79.40
2022-08-09T03:14:36.537Z,79.61
2022-08-09T03:15:09.629Z,79.53
2022-08-09T03:16:50.056Z,79.94
2022-08-09T03:17:26.974Z,79.74
2022-08-09T03:18:00.163Z,79.87
2022-08-09T03:18:31.815Z,79.35
2022-08-09T03:19:04.036Z,79.87
2022-08-09T03:19:59.035Z,79.57
2022-08-09T03:20:37.829Z,79.85
2022-08-09T03:21:11.048Z,79.75
2022-08-09T03:22:42.058Z,79.53
2022-08-09T03:23:24.395Z,79.50
2022-08-09T03:24:14.908Z,79.81
2022-08-09T03:25:06.234Z,79.46
2022-08-09T03:26:02.229Z,79.00
2022-08-09T03:26:37.334Z,79.67
2022-08-09T03:27:17.358Z,79.74
2022-08-09T03:27:55.208Z,79.29
2022-08-09T03:28:28.091Z,79.34
2022-08-09T03:29:02.070Z,79.68
2022-08-09T03:29:57.580Z,79.72
2022-08-09T03:30:36.866Z,79.83
2022-08-09T03:31:10.512Z,79.77
2022-08-09T03:31:59.524Z,80.08
2022-08-09T03:32:37.173Z,79.73
2022-08-09T03:33:13.087Z,79.86
2022-08-09T03:33:53.509Z,79.69
2022-08-09T03:34:26.668Z,79.54
2022-08-09T03:34:59.758Z,80.07
2022-08-09T03:36:11.736Z,79.60
2022-08-09T03:36:27.697Z,79.68
2022-08-09T03:37:02.491Z,79.72
2022-08-09T03:37:55.709Z,79.82
2022-08-09T03:38:30.671Z,79.84
2022-08-09T03:39:03.320Z,80.16
2022-08-09T03:39:37.977Z,79.86
2022-08-09T03:40:13.044Z,80.20
2022-08-09T03:41:03.775Z,79.65
2022-08-09T03:41:45.880Z,80.10
2022-08-09T03:42:20.170Z,80.10
2022-08-09T03:43:00.285Z,79.69
2022-08-09T03:44:03.660Z,80.38
2022-08-09T03:44:40.027Z,79.90
2022-08-09T03:45:11.738Z,80.03
2022-08-09T03:46:04.814Z,80.18
2022-08-09T03:46:36.136Z,80.01
2022-08-09T03:47:08.083Z,79.65
2022-08-09T03:47:44.150Z,80.33
2022-08-09T03:48:30.761Z,79.82
2022-08-09T03:49:07.850Z,80.21
2022-08-09T03:49:41.877Z,80.20
2022-08-09T03:50:32.154Z,80.14
2022-08-09T03:51:07.164Z,79.87
2022-08-09T03:52:03.475Z,79.96
2022-08-09T03:52:38.586Z,80.01
2022-08-09T03:53:11.109Z,80.24
2022-08-09T03:53:43.677Z,79.86
2022-08-09T03:54:18.569Z,79.87
2022-08-09T03:55:07.650Z,80.36
2022-08-09T03:55:42.358Z,80.12
2022-08-09T03:56:14.030Z,79.99
2022-08-09T03:56:46.711Z,80.68
2022-08-09T03:57:20.931Z,80.45
2022-08-09T03:58:06.478Z,80.17
2022-08-09T03:58:45.467Z,80.52
2022-08-09T03:59:27.434Z,80.33
2022-08-09T04:00:09.697Z,80.42
2022-08-09T04:00:42.559Z,80.31
2022-08-09T04:01:14.082Z,80.80
2022-08-09T04:01:48.847Z,80.85
2022-08-09T04:02:27.244Z,80.70
2022-08-09T04:02:59.469Z,80.46
2022-08-09T04:03:45.802Z,80.34
2022-08-09T04:04:18.283Z,80.72
2022-08-09T04:04:49.881Z,80.29
2022-08-09T04:05:27.956Z,80.72
2022-08-09T04:05:59.591Z,80.11
2022-08-09T04:06:31.020Z,80.25
2022-08-09T04:07:04.159Z,80.51
2022-08-09T04:07:53.264Z,80.79
2022-08-09T04:08:29.050Z,80.84
2022-08-09T04:09:03.640Z,80.36
2022-08-09T04:09:55.049Z,80.62
2022-08-09T04:10:29.719Z,80.81
2022-08-09T04:11:02.109Z,80.51
2022-08-09T04:12:02.821Z,80.87
2022-08-09T04:12:44.629Z,80.39
2022-08-09T04:13:18.621Z,81.01
2022-08-09T04:14:37.397Z,80.66
2022-08-09T04:14:59.196Z,80.23
2022-08-09T04:16:17.234Z,80.71
2022-08-09T04:16:24.925Z,80.39
2022-08-09T04:16:57.375Z,80.69
2022-08-09T04:17:29.372Z,80.95
2022-08-09T04:18:01.725Z,80.80
2022-08-09T04:18:33.080Z,80.26
2022-08-09T04:19:04.916Z,80.77
2022-08-09T04:19:51.577Z,80.29
2022-08-09T04:20:46.931Z,80.38
2022-08-09T04:21:19.232Z,80.76
2022-08-09T04:21:50.632Z,80.48
2022-08-09T04:22:24.293Z,80.60
2022-08-09T04:22:59.652Z,80.28
2022-08-09T04:23:31.120Z,80.62
2022-08-09T04:24:02.728Z,80.79
2022-08-09T04:24:34.131Z,80.62
2022-08-09T04:25:06.944Z,80.68
2022-08-09T04:25:39.570Z,80.65
2022-08-09T04:26:11.356Z,80.77
2022-08-09T04:26:42.961Z,80.55
2022-08-09T04:27:14.340Z,81.07
2022-08-09T04:27:46.653Z,80.75
2022-08-09T04:28:34.121Z,81.27
2022-08-09T04:29:12.135Z,80.96
2022-08-09T04:29:50.070Z,80.68
2022-08-09T04:30:23.515Z,80.89
2022-08-09T04:31:00.153Z,80.65
2022-08-09T04:31:46.898Z,80.49
2022-08-09T04:32:31.350Z,80.96
2022-08-09T04:33:05.268Z,80.90
2022-08-09T04:33:51.800Z,81.10
2022-08-09T04:34:30.781Z,81.21
2022-08-09T04:35:03.599Z,81.46
2022-08-09T04:35:35.424Z,81.30
2022-08-09T04:36:07.171Z,81.14
2022-08-09T04:36:41.326Z,80.84
2022-08-09T04:37:21.580Z,81.55
2022-08-09T04:37:52.930Z,81.26
2022-08-09T04:38:24.865Z,80.96
2022-08-09T04:39:00.522Z,81.40
2022-08-09T04:39:33.240Z,81.25
2022-08-09T04:40:19.292Z,81.28
2022-08-09T04:41:00.751Z,80.98
2022-08-09T04:41:33.772Z,80.66
2022-08-09T04:42:15.833Z,80.82
2022-08-09T04:42:49.860Z,80.71
2022-08-09T04:43:22.136Z,81.22
2022-08-09T04:44:07.197Z,81.43
2022-08-09T04:44:49.287Z,81.05
2022-08-09T04:45:20.922Z,81.27
2022-08-09T04:45:55.018Z,81.08
2022-08-09T04:46:57.078Z,81.31
2022-08-09T04:47:17.904Z,81.30
2022-08-09T04:47:59.439Z,81.21
2022-08-09T04:48:33.763Z,80.87
2022-08-09T04:49:05.159Z,81.45
2022-08-09T04:49:53.118Z,81.48
2022-08-09T04:50:34.973Z,80.86
2022-08-09T04:51:09.907Z,81.22
2022-08-09T04:51:41.232Z,81.32
2022-08-09T04:52:18.525Z,81.45
2022-08-09T04:52:57.684Z,81.70
2022-08-09T04:53:31.538Z,81.32
2022-08-09T04:54:52.415Z,81.00
2022-08-09T04:55:23.775Z,81.44
2022-08-09T04:55:58.916Z,81.59
2022-08-09T04:56:31.010Z,81.71
2022-08-09T04:57:54.307Z,81.55
2022-08-09T04:58:31.792Z,81.07
2022-08-09T04:59:07.984Z,81.74
2022-08-09T04:59:47.466Z,81.28
2022-08-09T05:00:22.280Z,81.10
2022-08-09T05:00:55.517Z,81.97
2022-08-09T05:01:26.948Z,82.10
2022-08-09T05:01:58.672Z,81.24
2022-08-09T05:02:34.748Z,81.62
2022-08-09T05:03:30.558Z,81.95
2022-08-09T05:03:58.589Z,81.56
2022-08-09T05:04:31.057Z,82.16
2022-08-09T05:05:04.223Z,81.93
2022-08-09T05:05:52.004Z,82.08
2022-08-09T05:06:27.517Z,81.71
2022-08-09T05:07:00.553Z,81.95
2022-08-09T05:07:32.253Z,81.54
2022-08-09T05:08:04.070Z,81.99
2022-08-09T05:08:35.558Z,81.74
2022-08-09T05:09:07.390Z,82.15
2022-08-09T05:09:45.495Z,82.37
2022-08-09T05:10:21.396Z,81.88
2022-08-09T05:10:55.056Z,81.48
2022-08-09T05:11:30.572Z,81.75
2022-08-09T05:12:04.871Z,81.72
2022-08-09T05:12:37.136Z,82.30
2022-08-09T05:13:10.864Z,82.27
2022-08-09T05:13:42.859Z,82.29
2022-08-09T05:14:14.710Z,82.49
2022-08-09T05:14:46.032Z,82.38
2022-08-09T05:15:38.524Z,82.39
2022-08-09T05:16:10.138Z,81.62
2022-08-09T05:16:43.478Z,82.66
2022-08-09T05:18:38.084Z,81.89
2022-08-09T05:18:38.647Z,81.89
2022-08-09T05:19:14.984Z,82.42
2022-08-09T05:19:46.559Z,82.28
2022-08-09T05:20:17.937Z,82.59
2022-08-09T05:20:49.296Z,82.58
2022-08-09T05:21:22.829Z,82.46
2022-08-09T05:21:56.423Z,82.58
2022-08-09T05:22:35.078Z,82.42
2022-08-09T05:23:58.609Z,81.98
2022-08-09T05:24:29.013Z,82.41
2022-08-09T05:25:50.957Z,81.84
2022-08-09T05:26:37.191Z,82.17
2022-08-09T05:27:13.997Z,82.24
2022-08-09T05:27:50.696Z,82.63
2022-08-09T05:28:40.797Z,82.04
2022-08-09T05:29:21.983Z,82.03
2022-08-09T05:29:54.068Z,81.87
2022-08-09T05:30:25.853Z,82.50
2022-08-09T05:31:01.498Z,82.48
2022-08-09T05:31:45.860Z,82.52
2022-08-09T05:32:19.025Z,82.08
2022-08-09T05:32:53.144Z,82.35
2022-08-09T05:33:26.461Z,82.16
2022-08-09T05:34:04.383Z,82.01
2022-08-09T05:34:35.730Z,82.28
2022-08-09T05:35:07.539Z,82.36
2022-08-09T05:35:39.129Z,82.21
2022-08-09T05:36:18.388Z,82.42
2022-08-09T05:36:52.495Z,82.25
2022-08-09T05:37:25.191Z,81.73
2022-08-09T05:37:57.159Z,81.91
2022-08-09T05:38:30.582Z,82.04
2022-08-09T05:39:02.570Z,82.47
2022-08-09T05:39:43.911Z,82.24
2022-08-09T05:40:34.426Z,82.35
2022-08-09T05:41:06.061Z,82.34
2022-08-09T05:41:44.054Z,82.74
2022-08-09T05:42:17.793Z,82.60
2022-08-09T05:42:54.248Z,83.22
2022-08-09T05:43:28.978Z,82.82
2022-08-09T05:44:03.556Z,82.98
2022-08-09T05:44:36.838Z,82.84
2022-08-09T05:45:10.475Z,82.92
2022-08-09T05:45:55.918Z,82.26
2022-08-09T05:46:28.589Z,82.66
2022-08-09T05:47:00.687Z,82.61
2022-08-09T05:47:53.061Z,82.18
2022-08-09T05:48:33.213Z,82.98
2022-08-09T05:49:07.334Z,82.66
2022-08-09T05:50:25.593Z,82.45
2022-08-09T05:51:42.612Z,82.89
2022-08-09T05:52:17.144Z,82.50
2022-08-09T05:52:53.683Z,82.70
2022-08-09T05:53:32.060Z,82.50
2022-08-09T05:54:05.522Z,82.49
2022-08-09T05:54:37.604Z,82.05
2022-08-09T05:55:20.368Z,82.08
2022-08-09T05:55:53.456Z,82.26
2022-08-09T05:56:27.095Z,81.98
2022-08-09T05:56:59.195Z,82.45
2022-08-09T05:57:50.455Z,82.77
2022-08-09T05:58:22.044Z,82.68
2022-08-09T05:58:59.567Z,82.40
2022-08-09T05:59:30.901Z,82.61
2022-08-09T06:00:03.195Z,82.53
2022-08-09T06:00:38.977Z,82.57
2022-08-09T06:01:10.880Z,83.01
2022-08-09T06:01:47.864Z,82.62
2022-08-09T06:02:19.808Z,82.52
2022-08-09T06:02:56.922Z,82.98
2022-08-09T06:03:34.829Z,83.04
2022-08-09T06:04:34.761Z,82.43
2022-08-09T06:05:08.528Z,82.37
2022-08-09T06:05:54.608Z,82.50
2022-08-09T06:06:29.260Z,82.70
2022-08-09T06:07:00.575Z,82.74
2022-08-09T06:07:32.579Z,82.69
2022-08-09T06:08:05.189Z,82.85
2022-08-09T06:08:39.574Z,82.88
2022-08-09T06:09:40.698Z,82.32
2022-08-09T06:10:03.239Z,82.64
2022-08-09T06:10:40.622Z,82.57
2022-08-09T06:11:16.827Z,82.15
2022-08-09T06:11:57.288Z,82.73
2022-08-09T06:12:29.617Z,82.17
2022-08-09T06:13:11.853Z,81.68
2022-08-09T06:14:52.308Z,81.94
2022-08-09T06:15:24.072Z,81.77
2022-08-09T06:15:58.025Z,81.71
2022-08-09T06:16:31.364Z,82.11
2022-08-09T06:17:09.187Z,81.88
2022-08-09T06:17:40.936Z,81.40
2022-08-09T06:18:12.341Z,81.82
2022-08-09T06:19:33.801Z,81.63
2022-08-09T06:20:05.676Z,81.73
2022-08-09T06:20:37.739Z,82.03
2022-08-09T06:21:09.126Z,82.01
2022-08-09T06:21:51.615Z,82.15
2022-08-09T06:22:30.465Z,81.82
2022-08-09T06:23:01.877Z,81.94
2022-08-09T06:23:55.198Z,81.87
2022-08-09T06:24:27.208Z,81.63
2022-08-09T06:24:58.583Z,81.77
2022-08-09T06:25:30.788Z,81.92
2022-08-09T06:26:02.269Z,81.67
2022-08-09T06:26:34.770Z,81.96
2022-08-09T06:27:06.127Z,82.03
2022-08-09T06:27:41.312Z,81.97
2022-08-09T06:29:05.050Z,82.02
2022-08-09T06:29:48.156Z,82.02
2022-08-09T06:30:28.907Z,81.98
2022-08-09T06:31:00.544Z,81.69
2022-08-09T06:31:39.665Z,81.35
2022-08-09T06:33:13.539Z,81.61
2022-08-09T06:33:40.098Z,81.56
2022-08-09T06:34:07.463Z,81.24
2022-08-09T06:34:38.898Z,81.11
2022-08-09T06:35:11.122Z,81.31
2022-08-09T06:35:57.167Z,81.56
2022-08-09T06:36:29.981Z,81.43
2022-08-09T06:37:01.703Z,81.41
2022-08-09T06:37:33.145Z,81.12
2022-08-09T06:38:36.327Z,81.21
2022-08-09T06:39:11.381Z,81.44
2022-08-09T06:39:58.219Z,81.39
2022-08-09T06:40:32.299Z,81.37
2022-08-09T06:41:18.088Z,81.62
2022-08-09T06:42:08.742Z,80.66
2022-08-09T06:42:45.124Z,80.93
2022-08-09T06:43:18.288Z,80.87
2022-08-09T06:43:50.505Z,81.30
2022-08-09T06:44:24.600Z,81.19
2022-08-09T06:44:59.287Z,80.75
2022-08-09T06:46:06.555Z,80.96
2022-08-09T06:46:39.690Z,81.23
2022-08-09T06:47:11.818Z,81.38
2022-08-09T06:47:44.372Z,81.11
2022-08-09T06:48:16.581Z,81.41
2022-08-09T06:48:48.199Z,81.48
2022-08-09T06:49:29.121Z,80.61
2022-08-09T06:50:16.807Z,80.43
2022-08-09T06:50:50.709Z,80.63
2022-08-09T06:51:22.172Z,80.43
2022-08-09T06:52:12.178Z,80.35
2022-08-09T06:52:48.897Z,80.43
2022-08-09T06:54:09.396Z,80.34
2022-08-09T06:56:30.976Z,80.34
2022-08-09T06:57:03.146Z,80.14
2022-08-09T06:58:01.771Z,80.26
2022-08-09T06:58:40.913Z,79.97
2022-08-09T07:00:49.124Z,80.27
2022-08-09T07:00:50.247Z,80.02
2022-08-09T07:01:01.663Z,80.05
2022-08-09T07:01:54.763Z,79.78
2022-08-09T07:02:30.843Z,79.74
2022-08-09T07:03:06.080Z,79.91
2022-08-09T07:03:39.750Z,79.44
2022-08-09T07:04:24.762Z,79.42
2022-08-09T07:04:58.495Z,80.04
2022-08-09T07:06:02.935Z,79.60
2022-08-09T07:06:22.822Z,79.69
2022-08-09T07:07:00.347Z,79.87
2022-08-09T07:07:59.571Z,80.32
2022-08-09T07:08:24.839Z,79.60
2022-08-09T07:08:56.533Z,79.59
2022-08-09T07:09:55.276Z,79.46
2022-08-09T07:10:29.514Z,79.12
2022-08-09T07:11:03.355Z,78.88
2022-08-09T07:11:53.735Z,79.61
2022-08-09T07:12:38.074Z,79.62
2022-08-09T07:13:27.674Z,79.21
2022-08-09T07:14:26.434Z,79.23
2022-08-09T07:14:58.145Z,79.03
2022-08-09T07:16:38.930Z,79.10
2022-08-09T07:16:41.165Z,78.93
2022-08-09T07:17:18.105Z,79.08
2022-08-09T07:17:52.625Z,79.04
2022-08-09T07:18:27.769Z,78.75
2022-08-09T07:19:02.764Z,78.07
2022-08-09T07:19:35.303Z,78.08
2022-08-09T07:20:08.118Z,78.46
2022-08-09T07:20:39.674Z,78.20
2022-08-09T07:21:14.905Z,78.16
2022-08-09T07:21:55.861Z,78.04
2022-08-09T07:22:43.801Z,77.90
2022-08-09T07:23:21.092Z,78.12
2022-08-09T07:23:57.907Z,77.96
2022-08-09T07:24:40.099Z,77.84
2022-08-09T07:25:12.679Z,77.29
2022-08-09T07:25:52.440Z,77.83
2022-08-09T07:26:34.233Z,77.60
2022-08-09T07:27:24.030Z,77.51
2022-08-09T07:27:58.851Z,77.42
2022-08-09T07:28:36.207Z,77.59
2022-08-09T07:29:30.841Z,76.95
2022-08-09T07:30:14.444Z,76.89
2022-08-09T07:30:45.769Z,76.71
2022-08-09T07:31:17.138Z,76.88
2022-08-09T07:31:48.481Z,76.83
2022-08-09T07:32:20.373Z,76.62
2022-08-09T07:32:54.748Z,76.85
2022-08-09T07:33:26.632Z,76.26
2022-08-09T07:34:20.226Z,76.43
2022-08-09T07:34:52.823Z,76.36
2022-08-09T07:35:53.915Z,76.29
2022-08-09T07:36:26.099Z,75.73
2022-08-09T07:36:57.588Z,75.73
2022-08-09T07:37:43.470Z,76.01
2022-08-09T07:38:16.201Z,76.06
2022-08-09T07:38:56.606Z,76.47
2022-08-09T07:39:42.220Z,76.03
2022-08-09T07:40:16.957Z,75.76
2022-08-09T07:41:08.388Z,75.67
2022-08-09T07:41:40.912Z,75.87
2022-08-09T07:42:12.470Z,75.87
2022-08-09T07:43:00.149Z,75.32
2022-08-09T07:43:31.771Z,74.47
2022-08-09T07:44:13.132Z,76.32
2022-08-09T07:44:53.125Z,75.18
2022-08-09T07:45:39.710Z,75.03
2022-08-09T07:46:11.945Z,74.54
2022-08-09T07:46:50.650Z,74.75
2022-08-09T07:47:23.603Z,73.86
2022-08-09T07:48:04.077Z,74.35
2022-08-09T07:48:36.168Z,74.36
2022-08-09T07:49:15.430Z,73.19
2022-08-09T07:50:05.549Z,73.84
2022-08-09T07:50:40.677Z,75.43
2022-08-09T07:52:05.013Z,74.01
2022-08-09T07:52:17.293Z,73.19
2022-08-09T07:52:49.886Z,74.62
2022-08-09T07:53:45.131Z,73.60
2022-08-09T07:54:12.877Z,73.34
2022-08-09T07:54:45.756Z,72.92
2022-08-09T07:55:23.383Z,72.94
2022-08-09T07:56:03.341Z,72.70
2022-08-09T07:56:44.917Z,72.66
2022-08-09T07:57:21.074Z,72.78
2022-08-09T07:57:52.553Z,72.62
2022-08-09T07:58:26.153Z,72.20
2022-08-09T07:58:59.442Z,72.65
2022-08-09T07:59:34.365Z,72.55
2022-08-09T08:00:36.475Z,72.79
2022-08-09T08:01:11.258Z,72.83
2022-08-09T08:01:42.969Z,72.28
2022-08-09T08:02:24.491Z,71.89
2022-08-09T08:02:59.176Z,71.33
2022-08-09T08:03:31.804Z,71.43
2022-08-09T08:04:03.618Z,72.09
2022-08-09T08:04:42.958Z,71.66
2022-08-09T08:05:20.559Z,71.33
2022-08-09T08:05:53.866Z,70.88
2022-08-09T08:06:32.047Z,70.73
2022-08-09T08:07:15.000Z,70.86
2022-08-09T08:08:44.576Z,71.06
2022-08-09T08:09:03.917Z,71.04
2022-08-09T08:09:42.557Z,71.03
2022-08-09T08:10:27.257Z,69.70
2022-08-09T08:11:15.441Z,71.04
2022-08-09T08:12:24.317Z,70.02
2022-08-09T08:12:45.614Z,69.90
2022-08-09T08:13:18.024Z,69.77
2022-08-09T08:13:56.907Z,69.51
2022-08-09T08:14:28.940Z,70.76
2022-08-09T08:15:00.639Z,69.87
2022-08-09T08:15:51.232Z,69.47
2022-08-09T08:16:29.624Z,68.71
2022-08-09T08:17:09.092Z,68.27
2022-08-09T08:17:52.851Z,68.47
2022-08-09T08:18:25.720Z,68.53
2022-08-09T08:18:58.309Z,67.77
2022-08-09T08:19:31.337Z,68.52
2022-08-09T08:20:03.520Z,67.65
2022-08-09T08:20:44.839Z,67.90
2022-08-09T08:21:17.208Z,66.33
2022-08-09T08:21:52.604Z,66.53
2022-08-09T08:22:25.785Z,66.54
2022-08-09T08:23:21.672Z,67.43
2022-08-09T08:24:01.108Z,67.54
2022-08-09T08:24:47.223Z,66.54
2022-08-09T08:25:22.289Z,67.20
2022-08-09T08:26:13.141Z,66.72
2022-08-09T08:26:55.260Z,67.46
2022-08-09T08:27:27.679Z,67.37
2022-08-09T08:28:14.278Z,67.27
2022-08-09T08:28:46.376Z,67.19
2022-08-09T08:29:28.099Z,65.81
2022-08-09T08:29:59.852Z,65.60
2022-08-09T08:30:35.884Z,66.67
2022-08-09T08:31:13.742Z,65.61
2022-08-09T08:32:02.266Z,65.95
2022-08-09T08:32:36.273Z,64.55
2022-08-09T08:33:24.749Z,65.66
2022-08-09T08:33:56.386Z,64.36
2022-08-09T08:34:30.948Z,64.09
2022-08-09T08:35:05.626Z,65.67
2022-08-09T08:35:59.313Z,64.13
2022-08-09T08:36:30.595Z,64.68
2022-08-09T08:37:07.673Z,64.04
2022-08-09T08:37:59.458Z,64.23
2022-08-09T08:38:38.302Z,64.14
2022-08-09T08:39:12.107Z,64.08
2022-08-09T08:39:44.422Z,64.56
2022-08-09T08:40:16.164Z,64.97
2022-08-09T08:40:49.626Z,63.67
2022-08-09T08:41:22.147Z,63.84
2022-08-09T08:41:54.966Z,63.72
2022-08-09T08:42:33.779Z,63.65
2022-08-09T08:43:13.205Z,64.54
2022-08-09T08:43:45.630Z,63.89
2022-08-09T08:44:36.220Z,63.96
2022-08-09T08:45:14.050Z,62.88
2022-08-09T08:46:09.823Z,64.35